sensor_id;sensor_type;location;lat;lon;timestamp;P1;durP1;ratioP1;P2;durP2;ratioP2
17214;SDS011;8723;51.502;6.918;2023-10-08T00:02:04;7.30;;;4.90;;
17214;SDS011;8723;51.502;6.918;2023-10-08T00:04:31;5.43;;;4.53;;
17214;SDS011;8723;51.502;6.918;2023-10-08T00:07:03;9.77;;;5.07;;
17214;SDS011;8723;51.502;6.918;2023-10-08T00:09:32;6.47;;;4.93;;
17214;SDS011;8723;51.502;6.918;2023-10-08T00:12:00;6.55;;;4.95;;
17214;SDS011;8723;51.502;6.918;2023-10-08T00:14:28;7.45;;;5.28;;
17214;SDS011;8723;51.502;6.918;2023-10-08T00:16:55;6.57;;;5.22;;
17214;SDS011;8723;51.502;6.918;2023-10-08T00:19:22;7.93;;;5.72;;
17214;SDS011;8723;51.502;6.918;2023-10-08T00:21:49;8.20;;;5.03;;
17214;SDS011;8723;51.502;6.918;2023-10-08T00:24:19;8.03;;;5.60;;
17214;SDS011;8723;51.502;6.918;2023-10-08T00:26:52;8.18;;;5.55;;
17214;SDS011;8723;51.502;6.918;2023-10-08T00:29:19;8.30;;;5.47;;
17214;SDS011;8723;51.502;6.918;2023-10-08T00:31:47;7.53;;;5.35;;
17214;SDS011;8723;51.502;6.918;2023-10-08T00:34:15;7.85;;;5.35;;
17214;SDS011;8723;51.502;6.918;2023-10-08T00:36:44;9.25;;;5.38;;
17214;SDS011;8723;51.502;6.918;2023-10-08T00:39:14;8.27;;;5.67;;
17214;SDS011;8723;51.502;6.918;2023-10-08T00:41:49;7.63;;;5.70;;
17214;SDS011;8723;51.502;6.918;2023-10-08T00:44:19;6.78;;;4.97;;
17214;SDS011;8723;51.502;6.918;2023-10-08T00:46:48;8.10;;;4.97;;
17214;SDS011;8723;51.502;6.918;2023-10-08T00:49:16;8.52;;;5.22;;
17214;SDS011;8723;51.502;6.918;2023-10-08T00:52:04;8.15;;;5.63;;
17214;SDS011;8723;51.502;6.918;2023-10-08T00:54:54;7.13;;;5.22;;
17214;SDS011;8723;51.502;6.918;2023-10-08T00:57:34;6.75;;;5.13;;
17214;SDS011;8723;51.502;6.918;2023-10-08T01:00:03;8.27;;;5.68;;
17214;SDS011;8723;51.502;6.918;2023-10-08T01:05:41;6.43;;;5.10;;
17214;SDS011;8723;51.502;6.918;2023-10-08T01:08:11;7.40;;;5.13;;
17214;SDS011;8723;51.502;6.918;2023-10-08T01:10:43;7.68;;;5.47;;
17214;SDS011;8723;51.502;6.918;2023-10-08T01:13:13;7.75;;;5.30;;
17214;SDS011;8723;51.502;6.918;2023-10-08T01:15:44;7.13;;;5.20;;
17214;SDS011;8723;51.502;6.918;2023-10-08T01:18:16;6.78;;;5.40;;
17214;SDS011;8723;51.502;6.918;2023-10-08T01:20:54;6.57;;;4.95;;
17214;SDS011;8723;51.502;6.918;2023-10-08T01:23:23;7.13;;;5.30;;
17214;SDS011;8723;51.502;6.918;2023-10-08T01:25:52;7.32;;;5.20;;
17214;SDS011;8723;51.502;6.918;2023-10-08T01:28:27;7.15;;;5.13;;
17214;SDS011;8723;51.502;6.918;2023-10-08T01:30:54;7.38;;;5.35;;
17214;SDS011;8723;51.502;6.918;2023-10-08T01:33:25;7.95;;;5.20;;
17214;SDS011;8723;51.502;6.918;2023-10-08T01:35:53;9.05;;;5.47;;
17214;SDS011;8723;51.502;6.918;2023-10-08T01:38:28;9.07;;;5.53;;
17214;SDS011;8723;51.502;6.918;2023-10-08T01:40:56;8.20;;;5.50;;
17214;SDS011;8723;51.502;6.918;2023-10-08T01:43:31;8.37;;;5.50;;
17214;SDS011;8723;51.502;6.918;2023-10-08T01:46:02;9.93;;;5.43;;
17214;SDS011;8723;51.502;6.918;2023-10-08T01:48:37;6.72;;;5.10;;
17214;SDS011;8723;51.502;6.918;2023-10-08T01:51:09;8.88;;;5.45;;
17214;SDS011;8723;51.502;6.918;2023-10-08T01:53:52;9.88;;;5.68;;
17214;SDS011;8723;51.502;6.918;2023-10-08T01:56:23;7.88;;;5.30;;
17214;SDS011;8723;51.502;6.918;2023-10-08T01:58:53;7.28;;;5.32;;
17214;SDS011;8723;51.502;6.918;2023-10-08T02:01:23;8.27;;;5.80;;
17214;SDS011;8723;51.502;6.918;2023-10-08T02:03:54;9.13;;;5.32;;
17214;SDS011;8723;51.502;6.918;2023-10-08T02:06:23;8.35;;;5.57;;
17214;SDS011;8723;51.502;6.918;2023-10-08T02:08:52;8.93;;;5.60;;
17214;SDS011;8723;51.502;6.918;2023-10-08T02:11:19;8.63;;;5.53;;
17214;SDS011;8723;51.502;6.918;2023-10-08T02:13:47;8.77;;;5.47;;
17214;SDS011;8723;51.502;6.918;2023-10-08T02:16:18;8.20;;;5.63;;
17214;SDS011;8723;51.502;6.918;2023-10-08T02:18:48;8.32;;;5.28;;
17214;SDS011;8723;51.502;6.918;2023-10-08T02:21:18;6.88;;;4.90;;
17214;SDS011;8723;51.502;6.918;2023-10-08T02:23:47;8.13;;;5.60;;
17214;SDS011;8723;51.502;6.918;2023-10-08T02:26:16;8.70;;;5.43;;
17214;SDS011;8723;51.502;6.918;2023-10-08T02:28:45;7.57;;;5.70;;
17214;SDS011;8723;51.502;6.918;2023-10-08T02:31:16;6.40;;;4.87;;
17214;SDS011;8723;51.502;6.918;2023-10-08T02:33:45;9.02;;;5.38;;
17214;SDS011;8723;51.502;6.918;2023-10-08T02:36:14;8.68;;;4.88;;
17214;SDS011;8723;51.502;6.918;2023-10-08T02:38:41;9.05;;;5.50;;
17214;SDS011;8723;51.502;6.918;2023-10-08T02:41:08;7.13;;;4.93;;
17214;SDS011;8723;51.502;6.918;2023-10-08T02:43:37;7.30;;;5.32;;
17214;SDS011;8723;51.502;6.918;2023-10-08T02:46:07;7.90;;;5.10;;
17214;SDS011;8723;51.502;6.918;2023-10-08T02:48:39;7.90;;;4.82;;
17214;SDS011;8723;51.502;6.918;2023-10-08T02:51:06;7.53;;;5.10;;
17214;SDS011;8723;51.502;6.918;2023-10-08T02:53:39;8.80;;;5.55;;
17214;SDS011;8723;51.502;6.918;2023-10-08T02:56:07;8.63;;;5.37;;
17214;SDS011;8723;51.502;6.918;2023-10-08T02:58:39;10.52;;;5.57;;
17214;SDS011;8723;51.502;6.918;2023-10-08T03:01:08;7.63;;;4.90;;
17214;SDS011;8723;51.502;6.918;2023-10-08T03:03:38;8.38;;;5.30;;
17214;SDS011;8723;51.502;6.918;2023-10-08T03:06:06;9.50;;;5.53;;
17214;SDS011;8723;51.502;6.918;2023-10-08T03:08:37;9.63;;;5.55;;
17214;SDS011;8723;51.502;6.918;2023-10-08T03:11:08;9.15;;;5.38;;
17214;SDS011;8723;51.502;6.918;2023-10-08T03:13:43;10.40;;;5.60;;
17214;SDS011;8723;51.502;6.918;2023-10-08T03:16:11;9.80;;;5.40;;
17214;SDS011;8723;51.502;6.918;2023-10-08T03:18:39;8.10;;;5.30;;
17214;SDS011;8723;51.502;6.918;2023-10-08T03:21:08;14.73;;;6.18;;
17214;SDS011;8723;51.502;6.918;2023-10-08T03:23:45;9.83;;;5.63;;
17214;SDS011;8723;51.502;6.918;2023-10-08T03:26:12;9.77;;;5.95;;
17214;SDS011;8723;51.502;6.918;2023-10-08T03:28:59;8.77;;;5.20;;
17214;SDS011;8723;51.502;6.918;2023-10-08T03:31:31;8.43;;;5.43;;
17214;SDS011;8723;51.502;6.918;2023-10-08T03:34:15;8.60;;;5.28;;
17214;SDS011;8723;51.502;6.918;2023-10-08T03:36:44;7.88;;;5.70;;
17214;SDS011;8723;51.502;6.918;2023-10-08T03:39:14;9.13;;;5.60;;
17214;SDS011;8723;51.502;6.918;2023-10-08T03:41:43;9.43;;;5.67;;
17214;SDS011;8723;51.502;6.918;2023-10-08T03:44:24;9.02;;;5.45;;
17214;SDS011;8723;51.502;6.918;2023-10-08T03:46:54;8.73;;;5.57;;
17214;SDS011;8723;51.502;6.918;2023-10-08T03:49:22;7.00;;;5.18;;
17214;SDS011;8723;51.502;6.918;2023-10-08T03:51:51;7.07;;;5.13;;
17214;SDS011;8723;51.502;6.918;2023-10-08T03:54:18;7.97;;;5.13;;
17214;SDS011;8723;51.502;6.918;2023-10-08T03:56:54;8.23;;;5.80;;
17214;SDS011;8723;51.502;6.918;2023-10-08T03:59:22;8.13;;;5.18;;
17214;SDS011;8723;51.502;6.918;2023-10-08T04:01:57;7.80;;;5.30;;
17214;SDS011;8723;51.502;6.918;2023-10-08T04:04:38;9.27;;;5.78;;
17214;SDS011;8723;51.502;6.918;2023-10-08T04:07:21;9.10;;;5.82;;
17214;SDS011;8723;51.502;6.918;2023-10-08T04:10:04;9.90;;;6.22;;
17214;SDS011;8723;51.502;6.918;2023-10-08T04:12:59;9.48;;;5.85;;
17214;SDS011;8723;51.502;6.918;2023-10-08T04:15:26;11.05;;;6.68;;
17214;SDS011;8723;51.502;6.918;2023-10-08T04:17:54;9.75;;;5.82;;
17214;SDS011;8723;51.502;6.918;2023-10-08T04:20:22;10.35;;;5.90;;
17214;SDS011;8723;51.502;6.918;2023-10-08T04:23:04;8.60;;;5.50;;
17214;SDS011;8723;51.502;6.918;2023-10-08T04:25:39;8.48;;;5.60;;
17214;SDS011;8723;51.502;6.918;2023-10-08T04:28:08;9.73;;;5.50;;
17214;SDS011;8723;51.502;6.918;2023-10-08T04:30:39;8.90;;;5.60;;
17214;SDS011;8723;51.502;6.918;2023-10-08T04:33:08;7.85;;;5.60;;
17214;SDS011;8723;51.502;6.918;2023-10-08T04:35:38;7.93;;;5.57;;
17214;SDS011;8723;51.502;6.918;2023-10-08T04:38:13;8.23;;;5.47;;
17214;SDS011;8723;51.502;6.918;2023-10-08T04:40:43;8.52;;;5.10;;
17214;SDS011;8723;51.502;6.918;2023-10-08T04:43:13;9.25;;;5.65;;
17214;SDS011;8723;51.502;6.918;2023-10-08T04:45:44;8.95;;;5.30;;
17214;SDS011;8723;51.502;6.918;2023-10-08T04:48:12;8.40;;;5.40;;
17214;SDS011;8723;51.502;6.918;2023-10-08T04:50:45;7.95;;;5.43;;
17214;SDS011;8723;51.502;6.918;2023-10-08T04:53:16;7.57;;;5.43;;
17214;SDS011;8723;51.502;6.918;2023-10-08T04:55:43;9.68;;;5.88;;
17214;SDS011;8723;51.502;6.918;2023-10-08T04:58:13;8.88;;;5.25;;
17214;SDS011;8723;51.502;6.918;2023-10-08T05:00:46;9.68;;;5.60;;
17214;SDS011;8723;51.502;6.918;2023-10-08T05:03:21;9.00;;;5.43;;
17214;SDS011;8723;51.502;6.918;2023-10-08T05:05:48;8.30;;;5.25;;
17214;SDS011;8723;51.502;6.918;2023-10-08T05:08:32;7.73;;;5.13;;
17214;SDS011;8723;51.502;6.918;2023-10-08T05:11:12;8.02;;;5.45;;
17214;SDS011;8723;51.502;6.918;2023-10-08T05:14:02;8.10;;;5.40;;
17214;SDS011;8723;51.502;6.918;2023-10-08T05:16:41;9.38;;;5.63;;
17214;SDS011;8723;51.502;6.918;2023-10-08T05:19:26;8.10;;;5.30;;
17214;SDS011;8723;51.502;6.918;2023-10-08T05:22:11;7.82;;;4.70;;
17214;SDS011;8723;51.502;6.918;2023-10-08T05:24:58;6.80;;;4.53;;
17214;SDS011;8723;51.502;6.918;2023-10-08T05:27:32;6.70;;;4.97;;
17214;SDS011;8723;51.502;6.918;2023-10-08T05:30:20;8.77;;;5.30;;
17214;SDS011;8723;51.502;6.918;2023-10-08T05:32:53;8.20;;;5.28;;
17214;SDS011;8723;51.502;6.918;2023-10-08T05:35:38;7.35;;;5.05;;
17214;SDS011;8723;51.502;6.918;2023-10-08T05:38:16;7.70;;;5.67;;
17214;SDS011;8723;51.502;6.918;2023-10-08T05:40:48;9.52;;;5.93;;
17214;SDS011;8723;51.502;6.918;2023-10-08T05:43:38;9.07;;;5.75;;
17214;SDS011;8723;51.502;6.918;2023-10-08T05:46:22;8.48;;;5.28;;
17214;SDS011;8723;51.502;6.918;2023-10-08T05:49:06;8.98;;;5.95;;
17214;SDS011;8723;51.502;6.918;2023-10-08T05:51:52;7.97;;;5.70;;
17214;SDS011;8723;51.502;6.918;2023-10-08T05:54:50;9.23;;;5.60;;
17214;SDS011;8723;51.502;6.918;2023-10-08T05:57:34;8.52;;;5.68;;
17214;SDS011;8723;51.502;6.918;2023-10-08T06:00:12;9.88;;;5.72;;
17214;SDS011;8723;51.502;6.918;2023-10-08T06:02:56;8.40;;;5.80;;
17214;SDS011;8723;51.502;6.918;2023-10-08T06:05:36;9.63;;;5.32;;
17214;SDS011;8723;51.502;6.918;2023-10-08T06:08:12;9.75;;;6.00;;
17214;SDS011;8723;51.502;6.918;2023-10-08T06:10:40;10.75;;;6.00;;
17214;SDS011;8723;51.502;6.918;2023-10-08T06:13:12;9.05;;;5.90;;
17214;SDS011;8723;51.502;6.918;2023-10-08T06:15:42;11.40;;;6.07;;
17214;SDS011;8723;51.502;6.918;2023-10-08T06:18:16;8.57;;;5.60;;
17214;SDS011;8723;51.502;6.918;2023-10-08T06:20:43;8.55;;;5.78;;
17214;SDS011;8723;51.502;6.918;2023-10-08T06:23:12;9.00;;;6.07;;
17214;SDS011;8723;51.502;6.918;2023-10-08T06:25:43;9.55;;;6.05;;
17214;SDS011;8723;51.502;6.918;2023-10-08T06:28:19;8.05;;;5.90;;
17214;SDS011;8723;51.502;6.918;2023-10-08T06:30:46;9.90;;;6.35;;
17214;SDS011;8723;51.502;6.918;2023-10-08T06:33:14;9.18;;;6.28;;
17214;SDS011;8723;51.502;6.918;2023-10-08T06:35:41;9.55;;;5.70;;
17214;SDS011;8723;51.502;6.918;2023-10-08T06:38:12;9.43;;;6.35;;
17214;SDS011;8723;51.502;6.918;2023-10-08T06:40:40;10.20;;;6.15;;
17214;SDS011;8723;51.502;6.918;2023-10-08T06:43:07;10.53;;;6.57;;
17214;SDS011;8723;51.502;6.918;2023-10-08T06:45:39;9.30;;;6.10;;
17214;SDS011;8723;51.502;6.918;2023-10-08T06:48:07;10.07;;;6.17;;
17214;SDS011;8723;51.502;6.918;2023-10-08T06:50:35;10.57;;;6.50;;
17214;SDS011;8723;51.502;6.918;2023-10-08T06:53:02;8.67;;;5.40;;
17214;SDS011;8723;51.502;6.918;2023-10-08T06:55:34;9.07;;;6.00;;
17214;SDS011;8723;51.502;6.918;2023-10-08T06:58:01;8.50;;;6.10;;
17214;SDS011;8723;51.502;6.918;2023-10-08T07:00:33;10.23;;;6.47;;
17214;SDS011;8723;51.502;6.918;2023-10-08T07:03:08;10.10;;;6.47;;
17214;SDS011;8723;51.502;6.918;2023-10-08T07:05:36;11.48;;;6.60;;
17214;SDS011;8723;51.502;6.918;2023-10-08T07:08:06;7.70;;;5.70;;
17214;SDS011;8723;51.502;6.918;2023-10-08T07:10:35;9.55;;;6.57;;
17214;SDS011;8723;51.502;6.918;2023-10-08T07:13:02;8.43;;;6.30;;
17214;SDS011;8723;51.502;6.918;2023-10-08T07:15:32;11.18;;;6.40;;
17214;SDS011;8723;51.502;6.918;2023-10-08T07:18:03;8.68;;;6.43;;
17214;SDS011;8723;51.502;6.918;2023-10-08T07:20:35;10.13;;;6.50;;
17214;SDS011;8723;51.502;6.918;2023-10-08T07:23:05;10.38;;;6.45;;
17214;SDS011;8723;51.502;6.918;2023-10-08T07:25:45;12.48;;;7.70;;
17214;SDS011;8723;51.502;6.918;2023-10-08T07:28:17;9.35;;;6.50;;
17214;SDS011;8723;51.502;6.918;2023-10-08T07:30:44;10.63;;;6.37;;
17214;SDS011;8723;51.502;6.918;2023-10-08T07:33:13;0.20;;;0.20;;
17214;SDS011;8723;51.502;6.918;2023-10-08T07:35:44;10.70;;;6.70;;
17214;SDS011;8723;51.502;6.918;2023-10-08T07:38:17;11.82;;;7.15;;
17214;SDS011;8723;51.502;6.918;2023-10-08T07:40:45;11.98;;;7.22;;
17214;SDS011;8723;51.502;6.918;2023-10-08T07:43:12;12.02;;;7.25;;
17214;SDS011;8723;51.502;6.918;2023-10-08T07:45:39;13.68;;;7.15;;
17214;SDS011;8723;51.502;6.918;2023-10-08T07:48:10;11.90;;;7.20;;
17214;SDS011;8723;51.502;6.918;2023-10-08T07:50:40;13.93;;;7.20;;
17214;SDS011;8723;51.502;6.918;2023-10-08T07:53:10;11.97;;;7.43;;
17214;SDS011;8723;51.502;6.918;2023-10-08T07:55:43;12.73;;;7.72;;
17214;SDS011;8723;51.502;6.918;2023-10-08T07:58:15;13.05;;;7.38;;
17214;SDS011;8723;51.502;6.918;2023-10-08T08:00:42;14.35;;;7.38;;
17214;SDS011;8723;51.502;6.918;2023-10-08T08:03:17;12.13;;;7.90;;
17214;SDS011;8723;51.502;6.918;2023-10-08T08:05:45;11.75;;;7.78;;
17214;SDS011;8723;51.502;6.918;2023-10-08T08:08:12;10.77;;;7.45;;
17214;SDS011;8723;51.502;6.918;2023-10-08T08:10:43;12.13;;;7.50;;
17214;SDS011;8723;51.502;6.918;2023-10-08T08:13:12;11.40;;;7.80;;
17214;SDS011;8723;51.502;6.918;2023-10-08T08:15:45;11.07;;;8.13;;
17214;SDS011;8723;51.502;6.918;2023-10-08T08:18:16;14.17;;;7.73;;
17214;SDS011;8723;51.502;6.918;2023-10-08T08:20:47;7.55;;;6.75;;
17214;SDS011;8723;51.502;6.918;2023-10-08T08:23:14;8.43;;;6.78;;
17214;SDS011;8723;51.502;6.918;2023-10-08T08:25:42;7.50;;;6.68;;
17214;SDS011;8723;51.502;6.918;2023-10-08T08:28:22;9.07;;;7.13;;
17214;SDS011;8723;51.502;6.918;2023-10-08T08:30:50;9.50;;;8.60;;
17214;SDS011;8723;51.502;6.918;2023-10-08T08:33:20;10.98;;;9.88;;
17214;SDS011;8723;51.502;6.918;2023-10-08T08:35:57;10.63;;;9.53;;
17214;SDS011;8723;51.502;6.918;2023-10-08T08:38:25;10.02;;;8.13;;
17214;SDS011;8723;51.502;6.918;2023-10-08T08:41:01;7.70;;;7.00;;
17214;SDS011;8723;51.502;6.918;2023-10-08T08:43:33;10.90;;;6.50;;
17214;SDS011;8723;51.502;6.918;2023-10-08T08:46:01;8.60;;;5.50;;
17214;SDS011;8723;51.502;6.918;2023-10-08T08:48:30;7.13;;;5.20;;
17214;SDS011;8723;51.502;6.918;2023-10-08T08:51:00;6.07;;;4.57;;
17214;SDS011;8723;51.502;6.918;2023-10-08T08:53:27;5.47;;;4.30;;
17214;SDS011;8723;51.502;6.918;2023-10-08T08:55:54;6.32;;;3.90;;
17214;SDS011;8723;51.502;6.918;2023-10-08T08:58:21;5.90;;;3.85;;
17214;SDS011;8723;51.502;6.918;2023-10-08T09:00:52;7.80;;;4.85;;
17214;SDS011;8723;51.502;6.918;2023-10-08T09:03:19;6.75;;;3.85;;
17214;SDS011;8723;51.502;6.918;2023-10-08T09:05:55;5.32;;;3.63;;
17214;SDS011;8723;51.502;6.918;2023-10-08T09:08:22;5.55;;;3.67;;
17214;SDS011;8723;51.502;6.918;2023-10-08T09:10:53;5.40;;;3.58;;
17214;SDS011;8723;51.502;6.918;2023-10-08T09:13:26;5.32;;;4.00;;
17214;SDS011;8723;51.502;6.918;2023-10-08T09:15:57;6.32;;;4.85;;
17214;SDS011;8723;51.502;6.918;2023-10-08T09:18:30;7.10;;;5.70;;
17214;SDS011;8723;51.502;6.918;2023-10-08T09:21:06;7.30;;;5.93;;
17214;SDS011;8723;51.502;6.918;2023-10-08T09:23:36;8.57;;;7.03;;
17214;SDS011;8723;51.502;6.918;2023-10-08T09:26:12;7.60;;;6.88;;
17214;SDS011;8723;51.502;6.918;2023-10-08T09:28:39;8.73;;;6.65;;
17214;SDS011;8723;51.502;6.918;2023-10-08T09:31:13;7.30;;;5.25;;
17214;SDS011;8723;51.502;6.918;2023-10-08T09:33:40;8.57;;;5.13;;
17214;SDS011;8723;51.502;6.918;2023-10-08T09:36:08;7.10;;;5.03;;
17214;SDS011;8723;51.502;6.918;2023-10-08T09:38:36;9.95;;;5.68;;
17214;SDS011;8723;51.502;6.918;2023-10-08T09:41:03;7.15;;;5.18;;
17214;SDS011;8723;51.502;6.918;2023-10-08T09:43:33;7.30;;;5.95;;
17214;SDS011;8723;51.502;6.918;2023-10-08T09:46:03;6.95;;;6.00;;
17214;SDS011;8723;51.502;6.918;2023-10-08T09:48:40;8.73;;;7.20;;
17214;SDS011;8723;51.502;6.918;2023-10-08T09:51:10;6.57;;;5.55;;
17214;SDS011;8723;51.502;6.918;2023-10-08T09:53:40;7.35;;;5.60;;
17214;SDS011;8723;51.502;6.918;2023-10-08T09:56:14;6.72;;;5.90;;
17214;SDS011;8723;51.502;6.918;2023-10-08T09:58:42;7.40;;;5.68;;
17214;SDS011;8723;51.502;6.918;2023-10-08T10:01:10;6.10;;;5.45;;
17214;SDS011;8723;51.502;6.918;2023-10-08T10:03:40;9.85;;;7.55;;
17214;SDS011;8723;51.502;6.918;2023-10-08T10:06:11;7.88;;;6.40;;
17214;SDS011;8723;51.502;6.918;2023-10-08T10:08:40;8.90;;;6.13;;
17214;SDS011;8723;51.502;6.918;2023-10-08T10:11:08;8.25;;;6.88;;
17214;SDS011;8723;51.502;6.918;2023-10-08T10:13:38;10.77;;;7.97;;
17214;SDS011;8723;51.502;6.918;2023-10-08T10:16:06;12.32;;;8.85;;
17214;SDS011;8723;51.502;6.918;2023-10-08T10:18:33;13.35;;;9.63;;
17214;SDS011;8723;51.502;6.918;2023-10-08T10:23:54;14.55;;;9.80;;
17214;SDS011;8723;51.502;6.918;2023-10-08T10:26:22;13.32;;;9.50;;
17214;SDS011;8723;51.502;6.918;2023-10-08T10:31:51;11.70;;;8.40;;
17214;SDS011;8723;51.502;6.918;2023-10-08T10:34:19;11.35;;;8.35;;
17214;SDS011;8723;51.502;6.918;2023-10-08T10:36:50;11.75;;;9.30;;
17214;SDS011;8723;51.502;6.918;2023-10-08T10:39:23;11.07;;;8.60;;
17214;SDS011;8723;51.502;6.918;2023-10-08T10:41:55;8.25;;;7.35;;
17214;SDS011;8723;51.502;6.918;2023-10-08T10:44:26;7.90;;;7.10;;
17214;SDS011;8723;51.502;6.918;2023-10-08T10:46:54;8.60;;;7.60;;
17214;SDS011;8723;51.502;6.918;2023-10-08T10:49:36;8.30;;;7.50;;
17214;SDS011;8723;51.502;6.918;2023-10-08T10:52:10;8.73;;;7.35;;
17214;SDS011;8723;51.502;6.918;2023-10-08T10:54:43;7.70;;;6.90;;
17214;SDS011;8723;51.502;6.918;2023-10-08T10:57:23;7.60;;;6.90;;
17214;SDS011;8723;51.502;6.918;2023-10-08T10:59:51;7.30;;;6.60;;
17214;SDS011;8723;51.502;6.918;2023-10-08T11:02:19;7.10;;;6.40;;
17214;SDS011;8723;51.502;6.918;2023-10-08T11:04:46;5.07;;;4.57;;
17214;SDS011;8723;51.502;6.918;2023-10-08T11:07:15;4.03;;;3.53;;
17214;SDS011;8723;51.502;6.918;2023-10-08T11:09:44;3.97;;;3.55;;
17214;SDS011;8723;51.502;6.918;2023-10-08T11:12:13;4.32;;;3.33;;
17214;SDS011;8723;51.502;6.918;2023-10-08T11:14:48;3.60;;;3.30;;
17214;SDS011;8723;51.502;6.918;2023-10-08T11:17:17;4.22;;;3.88;;
17214;SDS011;8723;51.502;6.918;2023-10-08T11:19:49;4.30;;;3.95;;
17214;SDS011;8723;51.502;6.918;2023-10-08T11:22:18;4.70;;;3.78;;
17214;SDS011;8723;51.502;6.918;2023-10-08T11:24:48;3.97;;;3.57;;
17214;SDS011;8723;51.502;6.918;2023-10-08T11:27:18;4.03;;;3.63;;
17214;SDS011;8723;51.502;6.918;2023-10-08T11:29:54;3.97;;;3.58;;
17214;SDS011;8723;51.502;6.918;2023-10-08T11:32:23;2.38;;;2.10;;
17214;SDS011;8723;51.502;6.918;2023-10-08T11:34:54;2.00;;;1.70;;
17214;SDS011;8723;51.502;6.918;2023-10-08T11:37:28;2.20;;;1.20;;
17214;SDS011;8723;51.502;6.918;2023-10-08T11:39:58;1.90;;;1.17;;
17214;SDS011;8723;51.502;6.918;2023-10-08T11:42:33;3.17;;;1.52;;
17214;SDS011;8723;51.502;6.918;2023-10-08T11:45:09;4.82;;;1.42;;
17214;SDS011;8723;51.502;6.918;2023-10-08T11:47:49;2.78;;;1.50;;
17214;SDS011;8723;51.502;6.918;2023-10-08T11:50:22;3.70;;;1.50;;
17214;SDS011;8723;51.502;6.918;2023-10-08T11:52:57;3.25;;;1.80;;
17214;SDS011;8723;51.502;6.918;2023-10-08T11:55:28;3.47;;;1.50;;
17214;SDS011;8723;51.502;6.918;2023-10-08T11:57:55;3.15;;;1.50;;
17214;SDS011;8723;51.502;6.918;2023-10-08T12:00:22;2.33;;;1.30;;
17214;SDS011;8723;51.502;6.918;2023-10-08T12:02:50;2.38;;;1.50;;
17214;SDS011;8723;51.502;6.918;2023-10-08T12:05:19;2.42;;;1.45;;
17214;SDS011;8723;51.502;6.918;2023-10-08T12:07:48;1.80;;;1.30;;
17214;SDS011;8723;51.502;6.918;2023-10-08T12:10:18;5.28;;;1.85;;
17214;SDS011;8723;51.502;6.918;2023-10-08T12:12:48;2.55;;;1.58;;
17214;SDS011;8723;51.502;6.918;2023-10-08T12:15:17;3.55;;;1.70;;
17214;SDS011;8723;51.502;6.918;2023-10-08T12:17:46;2.60;;;1.50;;
17214;SDS011;8723;51.502;6.918;2023-10-08T12:20:33;3.63;;;1.50;;
17214;SDS011;8723;51.502;6.918;2023-10-08T12:23:02;4.07;;;1.52;;
17214;SDS011;8723;51.502;6.918;2023-10-08T12:25:31;4.22;;;1.60;;
17214;SDS011;8723;51.502;6.918;2023-10-08T12:27:59;3.28;;;1.42;;
17214;SDS011;8723;51.502;6.918;2023-10-08T12:30:29;2.50;;;1.40;;
17214;SDS011;8723;51.502;6.918;2023-10-08T12:32:57;3.63;;;1.80;;
17214;SDS011;8723;51.502;6.918;2023-10-08T12:35:24;4.57;;;1.90;;
17214;SDS011;8723;51.502;6.918;2023-10-08T12:37:51;3.78;;;1.50;;
17214;SDS011;8723;51.502;6.918;2023-10-08T12:40:19;3.10;;;1.55;;
17214;SDS011;8723;51.502;6.918;2023-10-08T12:42:50;3.88;;;1.40;;
17214;SDS011;8723;51.502;6.918;2023-10-08T12:45:17;2.03;;;1.20;;
17214;SDS011;8723;51.502;6.918;2023-10-08T12:47:47;3.33;;;1.70;;
17214;SDS011;8723;51.502;6.918;2023-10-08T12:50:15;2.73;;;1.70;;
17214;SDS011;8723;51.502;6.918;2023-10-08T12:52:44;4.22;;;1.73;;
17214;SDS011;8723;51.502;6.918;2023-10-08T12:55:18;5.43;;;1.85;;
17214;SDS011;8723;51.502;6.918;2023-10-08T12:57:50;3.40;;;1.75;;
17214;SDS011;8723;51.502;6.918;2023-10-08T13:00:21;3.30;;;1.92;;
17214;SDS011;8723;51.502;6.918;2023-10-08T13:02:49;3.35;;;1.90;;
17214;SDS011;8723;51.502;6.918;2023-10-08T13:05:19;3.25;;;1.65;;
17214;SDS011;8723;51.502;6.918;2023-10-08T13:07:52;2.85;;;2.00;;
17214;SDS011;8723;51.502;6.918;2023-10-08T13:10:20;2.03;;;1.40;;
17214;SDS011;8723;51.502;6.918;2023-10-08T13:12:49;4.60;;;1.50;;
17214;SDS011;8723;51.502;6.918;2023-10-08T13:15:16;3.25;;;1.80;;
17214;SDS011;8723;51.502;6.918;2023-10-08T13:17:43;4.13;;;1.70;;
17214;SDS011;8723;51.502;6.918;2023-10-08T13:20:11;4.05;;;1.65;;
17214;SDS011;8723;51.502;6.918;2023-10-08T13:22:38;3.10;;;1.50;;
17214;SDS011;8723;51.502;6.918;2023-10-08T13:25:05;3.22;;;1.60;;
17214;SDS011;8723;51.502;6.918;2023-10-08T13:27:33;5.20;;;1.80;;
17214;SDS011;8723;51.502;6.918;2023-10-08T13:30:05;1.90;;;1.65;;
17214;SDS011;8723;51.502;6.918;2023-10-08T13:32:34;3.55;;;1.90;;
17214;SDS011;8723;51.502;6.918;2023-10-08T13:35:02;4.45;;;2.10;;
17214;SDS011;8723;51.502;6.918;2023-10-08T13:37:31;2.90;;;1.90;;
17214;SDS011;8723;51.502;6.918;2023-10-08T13:39:58;3.87;;;1.60;;
17214;SDS011;8723;51.502;6.918;2023-10-08T13:42:25;3.90;;;2.30;;
17214;SDS011;8723;51.502;6.918;2023-10-08T13:44:52;2.88;;;1.85;;
17214;SDS011;8723;51.502;6.918;2023-10-08T13:47:20;3.17;;;2.10;;
17214;SDS011;8723;51.502;6.918;2023-10-08T13:49:50;4.25;;;2.00;;
17214;SDS011;8723;51.502;6.918;2023-10-08T13:52:17;3.55;;;1.83;;
17214;SDS011;8723;51.502;6.918;2023-10-08T13:54:45;3.45;;;2.17;;
17214;SDS011;8723;51.502;6.918;2023-10-08T13:57:17;3.95;;;2.08;;
17214;SDS011;8723;51.502;6.918;2023-10-08T13:59:44;3.75;;;2.40;;
17214;SDS011;8723;51.502;6.918;2023-10-08T14:02:11;5.63;;;2.83;;
17214;SDS011;8723;51.502;6.918;2023-10-08T14:04:41;3.77;;;2.50;;
17214;SDS011;8723;51.502;6.918;2023-10-08T14:07:09;3.95;;;2.70;;
17214;SDS011;8723;51.502;6.918;2023-10-08T14:09:41;4.65;;;3.08;;
17214;SDS011;8723;51.502;6.918;2023-10-08T14:12:10;3.33;;;2.55;;
17214;SDS011;8723;51.502;6.918;2023-10-08T14:14:38;3.38;;;2.33;;
17214;SDS011;8723;51.502;6.918;2023-10-08T14:17:09;4.30;;;2.10;;
17214;SDS011;8723;51.502;6.918;2023-10-08T14:19:40;4.88;;;3.05;;
17214;SDS011;8723;51.502;6.918;2023-10-08T14:22:16;4.82;;;3.00;;
17214;SDS011;8723;51.502;6.918;2023-10-08T14:24:47;3.67;;;2.50;;
17214;SDS011;8723;51.502;6.918;2023-10-08T14:27:23;3.17;;;2.58;;
17214;SDS011;8723;51.502;6.918;2023-10-08T14:29:51;4.80;;;2.60;;
17214;SDS011;8723;51.502;6.918;2023-10-08T14:32:18;3.30;;;2.22;;
17214;SDS011;8723;51.502;6.918;2023-10-08T14:34:46;3.95;;;2.05;;
17214;SDS011;8723;51.502;6.918;2023-10-08T14:37:30;3.42;;;2.15;;
17214;SDS011;8723;51.502;6.918;2023-10-08T14:40:14;3.08;;;2.30;;
17214;SDS011;8723;51.502;6.918;2023-10-08T14:42:58;3.35;;;2.40;;
17214;SDS011;8723;51.502;6.918;2023-10-08T14:45:28;3.28;;;2.25;;
17214;SDS011;8723;51.502;6.918;2023-10-08T14:47:58;4.60;;;2.37;;
17214;SDS011;8723;51.502;6.918;2023-10-08T14:50:27;3.78;;;2.42;;
17214;SDS011;8723;51.502;6.918;2023-10-08T14:52:56;3.40;;;2.55;;
17214;SDS011;8723;51.502;6.918;2023-10-08T14:55:25;3.83;;;2.63;;
17214;SDS011;8723;51.502;6.918;2023-10-08T14:57:52;4.15;;;2.47;;
17214;SDS011;8723;51.502;6.918;2023-10-08T15:00:19;4.32;;;2.33;;
17214;SDS011;8723;51.502;6.918;2023-10-08T15:02:50;2.67;;;1.92;;
17214;SDS011;8723;51.502;6.918;2023-10-08T15:05:18;3.80;;;2.53;;
17214;SDS011;8723;51.502;6.918;2023-10-08T15:07:48;3.38;;;2.20;;
17214;SDS011;8723;51.502;6.918;2023-10-08T15:10:15;3.57;;;1.93;;
17214;SDS011;8723;51.502;6.918;2023-10-08T15:12:42;4.22;;;2.13;;
17214;SDS011;8723;51.502;6.918;2023-10-08T15:15:09;3.83;;;2.10;;
17214;SDS011;8723;51.502;6.918;2023-10-08T15:17:39;2.83;;;1.95;;
17214;SDS011;8723;51.502;6.918;2023-10-08T15:20:06;3.57;;;2.10;;
17214;SDS011;8723;51.502;6.918;2023-10-08T15:22:36;3.63;;;2.00;;
17214;SDS011;8723;51.502;6.918;2023-10-08T15:25:05;2.60;;;1.90;;
17214;SDS011;8723;51.502;6.918;2023-10-08T15:27:32;3.13;;;2.30;;
17214;SDS011;8723;51.502;6.918;2023-10-08T15:29:59;3.10;;;2.08;;
17214;SDS011;8723;51.502;6.918;2023-10-08T15:32:25;2.50;;;1.90;;
17214;SDS011;8723;51.502;6.918;2023-10-08T15:34:52;2.05;;;1.83;;